sensor_id;sensor_type;location;lat;lon;timestamp;P1;durP1;ratioP1;P2;durP2;ratioP2
35877;SDS011;21982;49.804;24.072;2023-03-15T00:00:47;7.97;;;3.03;;
35877;SDS011;21982;49.804;24.072;2023-03-15T00:03:13;9.77;;;3.25;;
35877;SDS011;21982;49.804;24.072;2023-03-15T00:05:43;8.05;;;3.67;;
35877;SDS011;21982;49.804;24.072;2023-03-15T00:08:10;7.15;;;3.13;;
35877;SDS011;21982;49.804;24.072;2023-03-15T00:10:39;8.27;;;3.35;;
35877;SDS011;21982;49.804;24.072;2023-03-15T00:13:08;8.20;;;3.90;;
35877;SDS011;21982;49.804;24.072;2023-03-15T00:15:34;11.30;;;4.57;;
35877;SDS011;21982;49.804;24.072;2023-03-15T00:18:00;12.55;;;5.07;;
35877;SDS011;21982;49.804;24.072;2023-03-15T00:20:29;12.10;;;4.80;;
35877;SDS011;21982;49.804;24.072;2023-03-15T00:22:55;23.05;;;10.88;;
35877;SDS011;21982;49.804;24.072;2023-03-15T00:25:21;32.67;;;14.90;;
35877;SDS011;21982;49.804;24.072;2023-03-15T00:27:46;29.02;;;14.50;;
35877;SDS011;21982;49.804;24.072;2023-03-15T00:30:12;26.15;;;12.93;;
35877;SDS011;21982;49.804;24.072;2023-03-15T00:32:37;27.50;;;13.88;;
35877;SDS011;21982;49.804;24.072;2023-03-15T00:35:03;22.42;;;11.45;;
35877;SDS011;21982;49.804;24.072;2023-03-15T00:37:29;19.25;;;10.63;;
35877;SDS011;21982;49.804;24.072;2023-03-15T00:39:56;21.10;;;10.77;;
35877;SDS011;21982;49.804;24.072;2023-03-15T00:42:21;19.33;;;9.35;;
35877;SDS011;21982;49.804;24.072;2023-03-15T00:44:51;16.20;;;7.28;;
35877;SDS011;21982;49.804;24.072;2023-03-15T00:47:18;14.20;;;7.18;;
35877;SDS011;21982;49.804;24.072;2023-03-15T00:49:43;16.80;;;7.90;;
35877;SDS011;21982;49.804;24.072;2023-03-15T00:52:10;13.18;;;6.85;;
35877;SDS011;21982;49.804;24.072;2023-03-15T00:54:36;14.82;;;6.53;;
35877;SDS011;21982;49.804;24.072;2023-03-15T00:57:02;11.75;;;6.45;;
35877;SDS011;21982;49.804;24.072;2023-03-15T00:59:28;11.85;;;5.57;;
35877;SDS011;21982;49.804;24.072;2023-03-15T01:01:59;14.73;;;7.95;;
35877;SDS011;21982;49.804;24.072;2023-03-15T01:04:28;10.40;;;5.93;;
35877;SDS011;21982;49.804;24.072;2023-03-15T01:06:53;12.40;;;6.75;;
35877;SDS011;21982;49.804;24.072;2023-03-15T01:09:18;14.27;;;6.63;;
35877;SDS011;21982;49.804;24.072;2023-03-15T01:11:44;13.98;;;5.43;;
35877;SDS011;21982;49.804;24.072;2023-03-15T01:14:09;16.45;;;6.35;;
35877;SDS011;21982;49.804;24.072;2023-03-15T01:16:35;12.27;;;5.70;;
35877;SDS011;21982;49.804;24.072;2023-03-15T01:19:00;11.80;;;4.97;;
35877;SDS011;21982;49.804;24.072;2023-03-15T01:21:26;12.75;;;6.22;;
35877;SDS011;21982;49.804;24.072;2023-03-15T01:23:51;11.32;;;5.40;;
35877;SDS011;21982;49.804;24.072;2023-03-15T01:26:17;10.18;;;5.45;;
35877;SDS011;21982;49.804;24.072;2023-03-15T01:28:43;11.18;;;5.90;;
35877;SDS011;21982;49.804;24.072;2023-03-15T01:31:19;11.70;;;4.90;;
35877;SDS011;21982;49.804;24.072;2023-03-15T01:33:49;10.60;;;4.63;;
35877;SDS011;21982;49.804;24.072;2023-03-15T01:36:15;15.32;;;5.43;;
35877;SDS011;21982;49.804;24.072;2023-03-15T01:38:41;11.52;;;5.25;;
35877;SDS011;21982;49.804;24.072;2023-03-15T01:41:10;9.88;;;4.70;;
35877;SDS011;21982;49.804;24.072;2023-03-15T01:43:37;11.60;;;5.05;;
35877;SDS011;21982;49.804;24.072;2023-03-15T01:54:28;8.23;;;3.85;;
35877;SDS011;21982;49.804;24.072;2023-03-15T01:59:47;7.95;;;3.65;;
35877;SDS011;21982;49.804;24.072;2023-03-15T02:02:16;7.35;;;3.30;;
35877;SDS011;21982;49.804;24.072;2023-03-15T02:07:19;8.07;;;3.40;;
35877;SDS011;21982;49.804;24.072;2023-03-15T02:12:24;7.60;;;4.03;;
35877;SDS011;21982;49.804;24.072;2023-03-15T02:14:50;10.88;;;3.63;;
35877;SDS011;21982;49.804;24.072;2023-03-15T02:17:21;8.23;;;4.05;;
35877;SDS011;21982;49.804;24.072;2023-03-15T02:28:14;7.85;;;3.97;;
35877;SDS011;21982;49.804;24.072;2023-03-15T02:30:41;8.23;;;3.83;;
35877;SDS011;21982;49.804;24.072;2023-03-15T02:33:10;6.60;;;2.67;;
35877;SDS011;21982;49.804;24.072;2023-03-15T02:35:44;8.70;;;3.72;;
35877;SDS011;21982;49.804;24.072;2023-03-15T02:38:09;8.48;;;3.25;;
35877;SDS011;21982;49.804;24.072;2023-03-15T02:40:34;8.00;;;2.92;;
35877;SDS011;21982;49.804;24.072;2023-03-15T02:43:01;7.15;;;3.17;;
35877;SDS011;21982;49.804;24.072;2023-03-15T02:45:31;5.95;;;2.58;;
35877;SDS011;21982;49.804;24.072;2023-03-15T02:47:59;7.13;;;3.08;;
35877;SDS011;21982;49.804;24.072;2023-03-15T02:50:29;5.55;;;2.92;;
35877;SDS011;21982;49.804;24.072;2023-03-15T02:52:54;7.43;;;3.45;;
35877;SDS011;21982;49.804;24.072;2023-03-15T02:55:19;9.10;;;3.38;;
35877;SDS011;21982;49.804;24.072;2023-03-15T02:57:45;6.18;;;3.17;;
35877;SDS011;21982;49.804;24.072;2023-03-15T03:00:11;10.30;;;3.95;;
35877;SDS011;21982;49.804;24.072;2023-03-15T03:02:39;6.00;;;3.20;;
35877;SDS011;21982;49.804;24.072;2023-03-15T03:05:05;10.35;;;3.10;;
35877;SDS011;21982;49.804;24.072;2023-03-15T03:07:31;5.50;;;3.22;;
35877;SDS011;21982;49.804;24.072;2023-03-15T03:09:56;6.88;;;3.25;;
35877;SDS011;21982;49.804;24.072;2023-03-15T03:12:22;8.32;;;3.65;;
35877;SDS011;21982;49.804;24.072;2023-03-15T03:14:47;9.75;;;4.57;;
35877;SDS011;21982;49.804;24.072;2023-03-15T03:17:13;11.77;;;5.25;;
35877;SDS011;21982;49.804;24.072;2023-03-15T03:19:39;14.00;;;6.25;;
35877;SDS011;21982;49.804;24.072;2023-03-15T03:22:04;28.33;;;13.73;;
35877;SDS011;21982;49.804;24.072;2023-03-15T03:24:30;22.83;;;9.95;;
35877;SDS011;21982;49.804;24.072;2023-03-15T03:26:55;22.15;;;9.88;;
35877;SDS011;21982;49.804;24.072;2023-03-15T03:29:23;13.85;;;6.13;;
35877;SDS011;21982;49.804;24.072;2023-03-15T03:31:49;12.80;;;6.57;;
35877;SDS011;21982;49.804;24.072;2023-03-15T03:34:15;10.65;;;6.10;;
35877;SDS011;21982;49.804;24.072;2023-03-15T03:36:41;9.55;;;5.47;;
35877;SDS011;21982;49.804;24.072;2023-03-15T03:39:07;8.65;;;3.67;;
35877;SDS011;21982;49.804;24.072;2023-03-15T03:41:33;9.38;;;4.72;;
35877;SDS011;21982;49.804;24.072;2023-03-15T03:43:59;7.03;;;3.70;;
35877;SDS011;21982;49.804;24.072;2023-03-15T03:46:24;10.73;;;3.97;;
35877;SDS011;21982;49.804;24.072;2023-03-15T03:48:50;8.50;;;4.55;;
35877;SDS011;21982;49.804;24.072;2023-03-15T03:51:15;8.45;;;4.47;;
35877;SDS011;21982;49.804;24.072;2023-03-15T03:53:42;9.35;;;3.75;;
35877;SDS011;21982;49.804;24.072;2023-03-15T03:56:09;10.80;;;4.68;;
35877;SDS011;21982;49.804;24.072;2023-03-15T03:58:34;9.07;;;4.35;;
35877;SDS011;21982;49.804;24.072;2023-03-15T04:01:02;8.65;;;4.47;;
35877;SDS011;21982;49.804;24.072;2023-03-15T04:03:28;11.45;;;4.72;;
35877;SDS011;21982;49.804;24.072;2023-03-15T04:05:54;8.45;;;3.92;;
35877;SDS011;21982;49.804;24.072;2023-03-15T04:08:22;7.78;;;3.83;;
35877;SDS011;21982;49.804;24.072;2023-03-15T04:10:49;9.65;;;4.18;;
35877;SDS011;21982;49.804;24.072;2023-03-15T04:13:18;11.27;;;5.07;;
35877;SDS011;21982;49.804;24.072;2023-03-15T04:15:44;9.85;;;4.28;;
35877;SDS011;21982;49.804;24.072;2023-03-15T04:18:11;9.32;;;4.93;;
35877;SDS011;21982;49.804;24.072;2023-03-15T04:20:37;11.93;;;5.45;;
35877;SDS011;21982;49.804;24.072;2023-03-15T04:23:02;9.63;;;5.30;;
35877;SDS011;21982;49.804;24.072;2023-03-15T04:25:31;12.88;;;6.43;;
35877;SDS011;21982;49.804;24.072;2023-03-15T04:27:56;14.65;;;7.15;;
35877;SDS011;21982;49.804;24.072;2023-03-15T04:30:27;11.13;;;6.47;;
35877;SDS011;21982;49.804;24.072;2023-03-15T04:32:54;11.50;;;5.85;;
35877;SDS011;21982;49.804;24.072;2023-03-15T04:35:27;12.05;;;5.53;;
35877;SDS011;21982;49.804;24.072;2023-03-15T04:37:54;16.95;;;6.05;;
35877;SDS011;21982;49.804;24.072;2023-03-15T04:40:21;10.52;;;5.80;;
35877;SDS011;21982;49.804;24.072;2023-03-15T04:42:48;10.02;;;5.47;;
35877;SDS011;21982;49.804;24.072;2023-03-15T04:45:16;12.52;;;5.40;;
35877;SDS011;21982;49.804;24.072;2023-03-15T04:47:42;9.57;;;5.53;;
35877;SDS011;21982;49.804;24.072;2023-03-15T04:50:08;10.85;;;5.15;;
35877;SDS011;21982;49.804;24.072;2023-03-15T04:52:34;9.15;;;4.57;;
35877;SDS011;21982;49.804;24.072;2023-03-15T04:54:59;9.30;;;5.72;;
35877;SDS011;21982;49.804;24.072;2023-03-15T04:57:24;12.73;;;7.43;;
35877;SDS011;21982;49.804;24.072;2023-03-15T04:59:50;12.18;;;6.20;;
35877;SDS011;21982;49.804;24.072;2023-03-15T05:02:15;15.50;;;7.70;;
35877;SDS011;21982;49.804;24.072;2023-03-15T05:04:40;16.15;;;7.18;;
35877;SDS011;21982;49.804;24.072;2023-03-15T05:07:07;15.02;;;7.70;;
35877;SDS011;21982;49.804;24.072;2023-03-15T05:09:33;12.73;;;6.75;;
35877;SDS011;21982;49.804;24.072;2023-03-15T05:12:02;13.75;;;7.38;;
35877;SDS011;21982;49.804;24.072;2023-03-15T05:14:28;13.75;;;7.93;;
35877;SDS011;21982;49.804;24.072;2023-03-15T05:16:54;14.18;;;8.38;;
35877;SDS011;21982;49.804;24.072;2023-03-15T05:19:22;16.77;;;8.23;;
35877;SDS011;21982;49.804;24.072;2023-03-15T05:21:48;23.02;;;11.32;;
35877;SDS011;21982;49.804;24.072;2023-03-15T05:24:13;18.27;;;9.32;;
35877;SDS011;21982;49.804;24.072;2023-03-15T05:26:39;17.10;;;8.70;;
35877;SDS011;21982;49.804;24.072;2023-03-15T05:29:05;14.82;;;7.88;;
35877;SDS011;21982;49.804;24.072;2023-03-15T05:31:30;16.85;;;8.40;;
35877;SDS011;21982;49.804;24.072;2023-03-15T05:34:00;16.80;;;8.82;;
35877;SDS011;21982;49.804;24.072;2023-03-15T05:36:28;14.60;;;8.60;;
35877;SDS011;21982;49.804;24.072;2023-03-15T05:38:54;16.13;;;9.65;;
35877;SDS011;21982;49.804;24.072;2023-03-15T05:41:20;17.50;;;10.48;;
35877;SDS011;21982;49.804;24.072;2023-03-15T05:43:45;14.73;;;9.73;;
35877;SDS011;21982;49.804;24.072;2023-03-15T05:46:11;17.58;;;10.57;;
35877;SDS011;21982;49.804;24.072;2023-03-15T05:48:36;24.08;;;10.02;;
35877;SDS011;21982;49.804;24.072;2023-03-15T05:51:01;17.33;;;10.07;;
35877;SDS011;21982;49.804;24.072;2023-03-15T05:53:27;18.08;;;9.90;;
35877;SDS011;21982;49.804;24.072;2023-03-15T05:55:52;15.98;;;7.75;;
35877;SDS011;21982;49.804;24.072;2023-03-15T05:58:19;19.52;;;10.43;;
35877;SDS011;21982;49.804;24.072;2023-03-15T06:00:44;20.70;;;10.15;;
35877;SDS011;21982;49.804;24.072;2023-03-15T06:03:10;16.17;;;9.10;;
35877;SDS011;21982;49.804;24.072;2023-03-15T06:05:35;25.13;;;11.02;;
35877;SDS011;21982;49.804;24.072;2023-03-15T06:08:01;23.33;;;10.80;;
35877;SDS011;21982;49.804;24.072;2023-03-15T06:10:26;26.75;;;14.85;;
35877;SDS011;21982;49.804;24.072;2023-03-15T06:12:51;39.13;;;13.40;;
35877;SDS011;21982;49.804;24.072;2023-03-15T06:15:17;33.30;;;13.00;;
35877;SDS011;21982;49.804;24.072;2023-03-15T06:17:43;36.70;;;14.70;;
35877;SDS011;21982;49.804;24.072;2023-03-15T06:20:09;37.15;;;14.48;;
35877;SDS011;21982;49.804;24.072;2023-03-15T06:22:35;35.42;;;16.92;;
35877;SDS011;21982;49.804;24.072;2023-03-15T06:25:01;25.13;;;12.65;;
35877;SDS011;21982;49.804;24.072;2023-03-15T06:27:27;22.20;;;11.43;;
35877;SDS011;21982;49.804;24.072;2023-03-15T06:29:53;22.88;;;11.52;;
35877;SDS011;21982;49.804;24.072;2023-03-15T06:32:18;22.75;;;13.43;;
35877;SDS011;21982;49.804;24.072;2023-03-15T06:34:44;43.30;;;12.85;;
35877;SDS011;21982;49.804;24.072;2023-03-15T06:37:09;33.40;;;14.55;;
35877;SDS011;21982;49.804;24.072;2023-03-15T06:39:38;22.90;;;12.77;;
35877;SDS011;21982;49.804;24.072;2023-03-15T06:42:04;25.30;;;15.30;;
35877;SDS011;21982;49.804;24.072;2023-03-15T06:44:32;20.17;;;12.60;;
35877;SDS011;21982;49.804;24.072;2023-03-15T06:46:58;22.45;;;13.45;;
35877;SDS011;21982;49.804;24.072;2023-03-15T06:49:24;17.98;;;11.65;;
35877;SDS011;21982;49.804;24.072;2023-03-15T06:51:49;27.73;;;14.50;;
35877;SDS011;21982;49.804;24.072;2023-03-15T06:54:16;25.95;;;14.13;;
35877;SDS011;21982;49.804;24.072;2023-03-15T06:56:41;25.27;;;14.75;;
35877;SDS011;21982;49.804;24.072;2023-03-15T06:59:07;30.15;;;18.23;;
35877;SDS011;21982;49.804;24.072;2023-03-15T07:01:33;33.83;;;20.70;;
35877;SDS011;21982;49.804;24.072;2023-03-15T07:03:58;34.80;;;19.92;;
35877;SDS011;21982;49.804;24.072;2023-03-15T07:06:24;28.25;;;17.27;;
35877;SDS011;21982;49.804;24.072;2023-03-15T07:08:52;32.75;;;20.75;;
35877;SDS011;21982;49.804;24.072;2023-03-15T07:11:17;35.63;;;20.70;;
35877;SDS011;21982;49.804;24.072;2023-03-15T07:13:43;28.48;;;17.52;;
35877;SDS011;21982;49.804;24.072;2023-03-15T07:16:08;26.45;;;17.15;;
35877;SDS011;21982;49.804;24.072;2023-03-15T07:18:34;43.13;;;18.60;;
35877;SDS011;21982;49.804;24.072;2023-03-15T07:21:00;16.45;;;11.10;;
35877;SDS011;21982;49.804;24.072;2023-03-15T07:23:27;15.80;;;8.65;;
35877;SDS011;21982;49.804;24.072;2023-03-15T07:25:54;15.82;;;8.40;;
35877;SDS011;21982;49.804;24.072;2023-03-15T07:28:20;13.60;;;8.40;;
35877;SDS011;21982;49.804;24.072;2023-03-15T07:30:53;14.82;;;7.80;;
35877;SDS011;21982;49.804;24.072;2023-03-15T07:33:23;12.20;;;7.80;;
35877;SDS011;21982;49.804;24.072;2023-03-15T07:35:50;14.00;;;7.70;;
35877;SDS011;21982;49.804;24.072;2023-03-15T07:38:17;12.70;;;6.10;;
35877;SDS011;21982;49.804;24.072;2023-03-15T07:40:43;13.73;;;7.80;;
35877;SDS011;21982;49.804;24.072;2023-03-15T07:43:08;18.45;;;10.05;;
35877;SDS011;21982;49.804;24.072;2023-03-15T07:45:34;17.52;;;9.10;;
35877;SDS011;21982;49.804;24.072;2023-03-15T07:47:59;20.23;;;10.93;;
35877;SDS011;21982;49.804;24.072;2023-03-15T07:50:25;22.90;;;12.95;;
35877;SDS011;21982;49.804;24.072;2023-03-15T07:52:51;20.08;;;10.35;;
35877;SDS011;21982;49.804;24.072;2023-03-15T07:55:16;9.88;;;5.15;;
35877;SDS011;21982;49.804;24.072;2023-03-15T07:57:42;11.40;;;5.13;;
35877;SDS011;21982;49.804;24.072;2023-03-15T08:00:09;8.15;;;3.63;;
35877;SDS011;21982;49.804;24.072;2023-03-15T08:02:39;9.30;;;4.70;;
35877;SDS011;21982;49.804;24.072;2023-03-15T08:05:06;6.15;;;3.05;;
35877;SDS011;21982;49.804;24.072;2023-03-15T08:07:32;7.45;;;4.22;;
35877;SDS011;21982;49.804;24.072;2023-03-15T08:09:57;9.77;;;4.55;;
35877;SDS011;21982;49.804;24.072;2023-03-15T08:12:23;10.50;;;5.72;;
35877;SDS011;21982;49.804;24.072;2023-03-15T08:14:49;9.15;;;4.03;;
35877;SDS011;21982;49.804;24.072;2023-03-15T08:17:17;7.25;;;3.85;;
35877;SDS011;21982;49.804;24.072;2023-03-15T08:19:42;7.38;;;4.78;;
35877;SDS011;21982;49.804;24.072;2023-03-15T08:22:08;8.38;;;3.35;;
35877;SDS011;21982;49.804;24.072;2023-03-15T08:24:34;17.38;;;6.95;;
35877;SDS011;21982;49.804;24.072;2023-03-15T08:27:00;7.20;;;3.25;;
35877;SDS011;21982;49.804;24.072;2023-03-15T08:29:25;13.90;;;6.57;;
35877;SDS011;21982;49.804;24.072;2023-03-15T08:31:51;10.30;;;5.53;;
35877;SDS011;21982;49.804;24.072;2023-03-15T08:34:16;19.30;;;5.82;;
35877;SDS011;21982;49.804;24.072;2023-03-15T08:36:44;18.23;;;5.72;;
35877;SDS011;21982;49.804;24.072;2023-03-15T08:39:19;17.50;;;6.07;;
35877;SDS011;21982;49.804;24.072;2023-03-15T08:41:44;18.08;;;6.43;;
35877;SDS011;21982;49.804;24.072;2023-03-15T08:44:12;19.08;;;4.97;;
35877;SDS011;21982;49.804;24.072;2023-03-15T08:46:37;12.07;;;4.63;;
35877;SDS011;21982;49.804;24.072;2023-03-15T08:49:02;12.55;;;5.13;;
35877;SDS011;21982;49.804;24.072;2023-03-15T08:51:28;11.10;;;4.93;;
35877;SDS011;21982;49.804;24.072;2023-03-15T08:53:55;10.90;;;5.38;;
35877;SDS011;21982;49.804;24.072;2023-03-15T08:56:20;11.15;;;6.15;;
35877;SDS011;21982;49.804;24.072;2023-03-15T08:58:46;7.15;;;3.50;;
35877;SDS011;21982;49.804;24.072;2023-03-15T09:01:15;8.70;;;4.20;;
35877;SDS011;21982;49.804;24.072;2023-03-15T09:03:41;6.78;;;2.90;;
35877;SDS011;21982;49.804;24.072;2023-03-15T09:06:07;8.35;;;2.90;;
35877;SDS011;21982;49.804;24.072;2023-03-15T09:08:33;7.10;;;2.90;;
35877;SDS011;21982;49.804;24.072;2023-03-15T09:10:58;3.50;;;2.13;;
35877;SDS011;21982;49.804;24.072;2023-03-15T09:13:27;7.43;;;2.83;;
35877;SDS011;21982;49.804;24.072;2023-03-15T09:15:54;11.30;;;4.30;;
35877;SDS011;21982;49.804;24.072;2023-03-15T09:18:21;7.93;;;2.50;;
35877;SDS011;21982;49.804;24.072;2023-03-15T09:20:47;19.40;;;6.10;;
35877;SDS011;21982;49.804;24.072;2023-03-15T09:23:12;22.77;;;8.07;;
35877;SDS011;21982;49.804;24.072;2023-03-15T09:25:38;19.25;;;5.05;;
35877;SDS011;21982;49.804;24.072;2023-03-15T09:28:05;21.48;;;5.70;;
35877;SDS011;21982;49.804;24.072;2023-03-15T09:30:32;25.45;;;8.55;;
35877;SDS011;21982;49.804;24.072;2023-03-15T09:32:57;16.80;;;5.38;;
35877;SDS011;21982;49.804;24.072;2023-03-15T09:35:23;27.15;;;6.13;;
35877;SDS011;21982;49.804;24.072;2023-03-15T09:37:49;13.02;;;6.28;;
35877;SDS011;21982;49.804;24.072;2023-03-15T09:40:17;31.00;;;18.08;;
35877;SDS011;21982;49.804;24.072;2023-03-15T09:43:00;38.80;;;14.75;;
35877;SDS011;21982;49.804;24.072;2023-03-15T09:48:35;18.50;;;7.22;;
35877;SDS011;21982;49.804;24.072;2023-03-15T09:51:09;13.48;;;5.82;;
35877;SDS011;21982;49.804;24.072;2023-03-15T09:53:56;19.98;;;5.25;;
35877;SDS011;21982;49.804;24.072;2023-03-15T09:56:28;12.68;;;3.95;;
35877;SDS011;21982;49.804;24.072;2023-03-15T09:58:58;12.93;;;4.65;;
35877;SDS011;21982;49.804;24.072;2023-03-15T10:01:35;4.88;;;3.17;;
35877;SDS011;21982;49.804;24.072;2023-03-15T10:06:59;8.23;;;3.10;;
35877;SDS011;21982;49.804;24.072;2023-03-15T10:09:27;22.58;;;5.85;;
35877;SDS011;21982;49.804;24.072;2023-03-15T10:20:03;16.52;;;6.35;;
35877;SDS011;21982;49.804;24.072;2023-03-15T10:22:38;13.65;;;3.97;;
35877;SDS011;21982;49.804;24.072;2023-03-15T10:25:22;9.45;;;3.17;;
35877;SDS011;21982;49.804;24.072;2023-03-15T10:28:03;4.10;;;2.33;;
35877;SDS011;21982;49.804;24.072;2023-03-15T10:30:48;8.70;;;3.00;;
35877;SDS011;21982;49.804;24.072;2023-03-15T10:35:56;8.50;;;2.67;;
35877;SDS011;21982;49.804;24.072;2023-03-15T10:38:23;6.57;;;3.15;;
35877;SDS011;21982;49.804;24.072;2023-03-15T10:40:50;11.60;;;4.18;;
35877;SDS011;21982;49.804;24.072;2023-03-15T10:43:19;6.90;;;3.28;;
35877;SDS011;21982;49.804;24.072;2023-03-15T10:54:11;8.57;;;4.15;;
35877;SDS011;21982;49.804;24.072;2023-03-15T10:56:41;15.55;;;4.88;;
35877;SDS011;21982;49.804;24.072;2023-03-15T10:59:19;7.13;;;3.30;;
35877;SDS011;21982;49.804;24.072;2023-03-15T11:01:49;6.32;;;2.25;;
35877;SDS011;21982;49.804;24.072;2023-03-15T11:04:23;5.25;;;2.55;;
35877;SDS011;21982;49.804;24.072;2023-03-15T11:09:23;6.50;;;3.28;;
35877;SDS011;21982;49.804;24.072;2023-03-15T11:12:03;5.00;;;2.75;;
35877;SDS011;21982;49.804;24.072;2023-03-15T11:14:43;5.55;;;2.72;;
35877;SDS011;21982;49.804;24.072;2023-03-15T11:17:15;6.93;;;2.78;;
35877;SDS011;21982;49.804;24.072;2023-03-15T11:19:53;5.22;;;2.50;;
35877;SDS011;21982;49.804;24.072;2023-03-15T11:22:24;6.95;;;3.10;;
35877;SDS011;21982;49.804;24.072;2023-03-15T11:24:50;6.68;;;3.20;;
35877;SDS011;21982;49.804;24.072;2023-03-15T11:27:18;4.65;;;2.30;;
35877;SDS011;21982;49.804;24.072;2023-03-15T11:29:54;5.38;;;2.08;;
35877;SDS011;21982;49.804;24.072;2023-03-15T11:32:26;5.97;;;2.90;;
35877;SDS011;21982;49.804;24.072;2023-03-15T11:37:46;9.43;;;3.35;;
35877;SDS011;21982;49.804;24.072;2023-03-15T11:40:29;9.40;;;3.45;;
35877;SDS011;21982;49.804;24.072;2023-03-15T11:43:12;8.23;;;3.53;;
35877;SDS011;21982;49.804;24.072;2023-03-15T11:45:50;8.27;;;2.92;;
35877;SDS011;21982;49.804;24.072;2023-03-15T11:56:48;5.93;;;2.75;;
35877;SDS011;21982;49.804;24.072;2023-03-15T11:59:26;11.13;;;5.47;;
35877;SDS011;21982;49.804;24.072;2023-03-15T12:09:39;7.93;;;3.97;;
35877;SDS011;21982;49.804;24.072;2023-03-15T12:15:04;10.90;;;3.75;;
35877;SDS011;21982;49.804;24.072;2023-03-15T12:18:02;11.98;;;3.97;;
35877;SDS011;21982;49.804;24.072;2023-03-15T12:20:40;12.52;;;5.72;;
35877;SDS011;21982;49.804;24.072;2023-03-15T12:23:47;9.73;;;5.57;;
35877;SDS011;21982;49.804;24.072;2023-03-15T12:26:44;13.75;;;7.10;;
35877;SDS011;21982;49.804;24.072;2023-03-15T12:35:04;16.73;;;6.45;;
35877;SDS011;21982;49.804;24.072;2023-03-15T12:37:15;10.50;;;4.85;;
35877;SDS011;21982;49.804;24.072;2023-03-15T12:42:13;12.68;;;5.65;;
35877;SDS011;21982;49.804;24.072;2023-03-15T12:45:07;14.68;;;7.65;;
35877;SDS011;21982;49.804;24.072;2023-03-15T12:47:44;26.48;;;13.70;;
35877;SDS011;21982;49.804;24.072;2023-03-15T12:55:50;17.75;;;8.32;;
35877;SDS011;21982;49.804;24.072;2023-03-15T12:58:17;14.65;;;9.02;;
35877;SDS011;21982;49.804;24.072;2023-03-15T13:00:46;15.05;;;7.63;;
35877;SDS011;21982;49.804;24.072;2023-03-15T13:03:14;11.05;;;6.72;;
35877;SDS011;21982;49.804;24.072;2023-03-15T13:08:29;15.02;;;7.50;;
35877;SDS011;21982;49.804;24.072;2023-03-15T13:24:11;16.75;;;6.82;;
35877;SDS011;21982;49.804;24.072;2023-03-15T13:29:33;8.48;;;5.18;;
35877;SDS011;21982;49.804;24.072;2023-03-15T13:32:20;11.70;;;6.65;;
35877;SDS011;21982;49.804;24.072;2023-03-15T13:34:47;9.43;;;4.18;;
35877;SDS011;21982;49.804;24.072;2023-03-15T13:37:16;10.18;;;5.15;;
35877;SDS011;21982;49.804;24.072;2023-03-15T13:39:54;9.20;;;5.45;;
35877;SDS011;21982;49.804;24.072;2023-03-15T13:42:20;8.07;;;3.83;;
35877;SDS011;21982;49.804;24.072;2023-03-15T13:47:34;8.18;;;5.03;;
35877;SDS011;21982;49.804;24.072;2023-03-15T13:50:01;9.90;;;4.20;;
35877;SDS011;21982;49.804;24.072;2023-03-15T13:52:28;11.32;;;6.13;;
35877;SDS011;21982;49.804;24.072;2023-03-15T13:54:53;9.55;;;4.68;;
35877;SDS011;21982;49.804;24.072;2023-03-15T13:57:22;12.38;;;5.03;;
35877;SDS011;21982;49.804;24.072;2023-03-15T13:59:58;10.82;;;5.22;;
35877;SDS011;21982;49.804;24.072;2023-03-15T14:02:46;10.85;;;4.88;;
35877;SDS011;21982;49.804;24.072;2023-03-15T14:05:25;10.68;;;5.32;;
35877;SDS011;21982;49.804;24.072;2023-03-15T14:08:01;10.75;;;5.13;;
35877;SDS011;21982;49.804;24.072;2023-03-15T14:10:31;10.80;;;5.25;;
35877;SDS011;21982;49.804;24.072;2023-03-15T14:15:50;13.45;;;6.15;;
35877;SDS011;21982;49.804;24.072;2023-03-15T14:18:25;16.90;;;6.60;;
35877;SDS011;21982;49.804;24.072;2023-03-15T14:23:26;9.15;;;4.97;;
35877;SDS011;21982;49.804;24.072;2023-03-15T14:28:34;13.95;;;4.80;;
35877;SDS011;21982;49.804;24.072;2023-03-15T14:31:00;10.48;;;4.57;;
35877;SDS011;21982;49.804;24.072;2023-03-15T14:33:33;9.60;;;4.22;;
35877;SDS011;21982;49.804;24.072;2023-03-15T14:36:05;11.63;;;5.90;;
35877;SDS011;21982;49.804;24.072;2023-03-15T14:38:48;9.20;;;4.88;;
35877;SDS011;21982;49.804;24.072;2023-03-15T14:41:23;12.32;;;6.05;;
35877;SDS011;21982;49.804;24.072;2023-03-15T14:43:51;10.85;;;5.35;;
35877;SDS011;21982;49.804;24.072;2023-03-15T14:46:17;9.60;;;4.85;;
35877;SDS011;21982;49.804;24.072;2023-03-15T14:48:44;11.35;;;5.32;;
35877;SDS011;21982;49.804;24.072;2023-03-15T14:51:14;9.52;;;4.78;;
35877;SDS011;21982;49.804;24.072;2023-03-15T14:53:41;9.93;;;4.95;;
35877;SDS011;21982;49.804;24.072;2023-03-15T14:56:11;10.93;;;5.00;;
35877;SDS011;21982;49.804;24.072;2023-03-15T14:58:38;9.27;;;4.75;;
35877;SDS011;21982;49.804;24.072;2023-03-15T15:01:05;12.52;;;5.97;;
35877;SDS011;21982;49.804;24.072;2023-03-15T15:06:11;16.13;;;5.50;;
35877;SDS011;21982;49.804;24.072;2023-03-15T15:08:38;10.32;;;5.07;;
35877;SDS011;21982;49.804;24.072;2023-03-15T15:11:07;13.88;;;6.45;;
35877;SDS011;21982;49.804;24.072;2023-03-15T15:13:36;16.90;;;8.90;;
35877;SDS011;21982;49.804;24.072;2023-03-15T15:16:03;14.13;;;7.60;;
35877;SDS011;21982;49.804;24.072;2023-03-15T15:18:33;12.93;;;7.05;;
35877;SDS011;21982;49.804;24.072;2023-03-15T15:21:17;14.07;;;7.10;;
35877;SDS011;21982;49.804;24.072;2023-03-15T15:23:47;16.35;;;6.53;;
35877;SDS011;21982;49.804;24.072;2023-03-15T15:26:17;13.05;;;7.30;;
35877;SDS011;21982;49.804;24.072;2023-03-15T15:28:45;14.35;;;6.50;;
35877;SDS011;21982;49.804;24.072;2023-03-15T15:31:15;13.20;;;7.80;;
35877;SDS011;21982;49.804;24.072;2023-03-15T15:33:43;17.45;;;8.13;;
35877;SDS011;21982;49.804;24.072;2023-03-15T15:36:12;14.82;;;7.30;;
35877;SDS011;21982;49.804;24.072;2023-03-15T15:38:43;15.85;;;8.95;;
35877;SDS011;21982;49.804;24.072;2023-03-15T15:41:15;18.02;;;10.00;;
35877;SDS011;21982;49.804;24.072;2023-03-15T15:43:53;15.55;;;8.20;;
35877;SDS011;21982;49.804;24.072;2023-03-15T15:46:19;17.75;;;9.45;;
35877;SDS011;21982;49.804;24.072;2023-03-15T15:48:44;16.50;;;8.45;;
35877;SDS011;21982;49.804;24.072;2023-03-15T15:51:26;16.63;;;9.52;;
35877;SDS011;21982;49.804;24.072;2023-03-15T15:53:55;21.63;;;10.10;;
35877;SDS011;21982;49.804;24.072;2023-03-15T15:56:25;16.08;;;8.35;;
35877;SDS011;21982;49.804;24.072;2023-03-15T15:58:54;17.90;;;10.15;;
35877;SDS011;21982;49.804;24.072;2023-03-15T16:01:21;18.98;;;10.13;;
35877;SDS011;21982;49.804;24.072;2023-03-15T16:03:47;21.15;;;9.68;;
35877;SDS011;21982;49.804;24.072;2023-03-15T16:06:14;18.10;;;9.60;;
35877;SDS011;21982;49.804;24.072;2023-03-15T16:08:42;17.40;;;9.88;;
35877;SDS011;21982;49.804;24.072;2023-03-15T16:11:09;17.50;;;9.43;;
35877;SDS011;21982;49.804;24.072;2023-03-15T16:13:36;19.10;;;10.05;;
35877;SDS011;21982;49.804;24.072;2023-03-15T16:16:02;16.98;;;9.40;;
35877;SDS011;21982;49.804;24.072;2023-03-15T16:18:27;18.05;;;10.88;;
35877;SDS011;21982;49.804;24.072;2023-03-15T16:20:53;22.15;;;10.88;;
35877;SDS011;21982;49.804;24.072;2023-03-15T16:23:19;19.92;;;10.73;;
35877;SDS011;21982;49.804;24.072;2023-03-15T16:25:48;17.55;;;10.13;;
35877;SDS011;21982;49.804;24.072;2023-03-15T16:28:16;22.40;;;13.82;;
35877;SDS011;21982;49.804;24.072;2023-03-15T16:30:42;19.48;;;10.68;;